createdAt,value
2019-05-13T00:01:07.108Z,95015.14
2019-05-13T00:03:38.461Z,95017.89
2019-05-13T00:06:09.958Z,95017.89
2019-05-13T00:08:43.830Z,95015.84
2019-05-13T00:11:13.992Z,95015.84
2019-05-13T00:13:46.165Z,95013.91
2019-05-13T00:16:17.340Z,95016.67
2019-05-13T00:18:48.837Z,95018.33
2019-05-13T00:21:19.737Z,95018.33
2019-05-13T00:23:50.815Z,95015.70
2019-05-13T00:26:21.820Z,95025.40
2019-05-13T00:28:53.449Z,95023.16
2019-05-13T00:31:24.587Z,95016.94
2019-05-13T00:33:55.622Z,95016.94
2019-05-13T00:36:27.065Z,95015.73
2019-05-13T00:38:58.833Z,95018.33
2019-05-13T00:41:29.902Z,95019.17
2019-05-13T00:44:01.222Z,95019.17
2019-05-13T00:46:34.017Z,95020.02
2019-05-13T00:49:05.406Z,95009.23
2019-05-13T00:51:36.559Z,95013.48
2019-05-13T00:54:08.253Z,95012.45
2019-05-13T00:56:39.329Z,95012.45
2019-05-13T00:59:10.866Z,95016.87
2019-05-13T01:01:44.100Z,95016.87
2019-05-13T01:04:15.279Z,95011.11
2019-05-13T01:06:46.650Z,95011.11
2019-05-13T01:09:17.793Z,95008.79
2019-05-13T01:11:48.972Z,95006.16
2019-05-13T01:14:20.028Z,95006.16
2019-05-13T01:16:51.440Z,95013.07
2019-05-13T01:19:23.699Z,95015.20
2019-05-13T01:21:55.403Z,95023.59
2019-05-13T01:24:26.418Z,95023.59
2019-05-13T01:26:58.269Z,95022.20
2019-05-13T01:29:30.943Z,95021.57
2019-05-13T01:32:04.468Z,95018.58
2019-05-13T01:34:35.288Z,95018.95
2019-05-13T01:37:06.734Z,95022.33
2019-05-13T01:39:38.309Z,95023.09
2019-05-13T01:42:09.514Z,95022.91
2019-05-13T01:44:43.632Z,95023.01
2019-05-13T01:47:13.988Z,95029.80
2019-05-13T01:49:45.243Z,95027.99
2019-05-13T01:52:16.501Z,95024.27
2019-05-13T01:54:47.650Z,95028.56
2019-05-13T01:57:19.018Z,95031.52
2019-05-13T01:59:50.431Z,95036.64
2019-05-13T02:02:24.255Z,95040.19
2019-05-13T02:04:55.271Z,95041.37
2019-05-13T02:07:26.867Z,95047.78
2019-05-13T02:09:59.271Z,95042.67
2019-05-13T02:12:30.744Z,95037.86
2019-05-13T02:15:04.317Z,95044.73
2019-05-13T02:17:34.912Z,95037.06
2019-05-13T02:20:06.566Z,95041.37
2019-05-13T02:22:37.507Z,95047.63
2019-05-13T02:25:08.728Z,95044.84
2019-05-13T02:27:39.741Z,95048.28
2019-05-13T02:30:10.925Z,95057.33
2019-05-13T02:32:42.814Z,95056.14
2019-05-13T02:35:14.350Z,95048.44
2019-05-13T02:37:45.397Z,95047.83
2019-05-13T02:40:16.525Z,95048.83
2019-05-13T02:42:47.324Z,95037.49
2019-05-13T02:45:19.139Z,95033.55
2019-05-13T02:47:52.136Z,95048.48
2019-05-13T02:50:23.264Z,95046.97
2019-05-13T02:52:54.481Z,95045.64
2019-05-13T02:55:25.546Z,95040.69
2019-05-13T02:57:56.934Z,95043.64
2019-05-13T03:00:28.173Z,95044.21
2019-05-13T03:03:02.920Z,95042.69
2019-05-13T03:05:32.452Z,95042.69
2019-05-13T03:08:03.748Z,95048.79
2019-05-13T03:10:34.996Z,95049.42
2019-05-13T03:13:06.245Z,95053.04
2019-05-13T03:15:46.370Z,95057.81
2019-05-13T03:18:18.349Z,95070.78
2019-05-13T03:20:52.651Z,95059.31
2019-05-13T03:23:22.922Z,95072.59
2019-05-13T03:25:54.490Z,95064.90
2019-05-13T03:28:25.757Z,95081.39
2019-05-13T03:30:57.370Z,95067.78
2019-05-13T03:33:28.921Z,95071.70
2019-05-13T03:36:05.663Z,95074.27
2019-05-13T03:38:33.650Z,95072.77
2019-05-13T03:41:07.529Z,95080.83
2019-05-13T03:43:43.037Z,95071.19
2019-05-13T03:46:14.168Z,95080.88
2019-05-13T03:48:48.545Z,95076.64
2019-05-13T03:51:22.162Z,95069.78
2019-05-13T03:53:54.264Z,95075.22
2019-05-13T03:56:25.701Z,95081.00
2019-05-13T03:58:56.871Z,95086.24
2019-05-13T04:01:28.444Z,95090.69
2019-05-13T04:04:02.956Z,95089.25
2019-05-13T04:06:33.168Z,95089.20
2019-05-13T04:09:20.539Z,95087.39
2019-05-13T04:11:42.343Z,95089.12
2019-05-13T04:14:12.995Z,95087.30
2019-05-13T04:16:44.354Z,95092.28
2019-05-13T04:19:15.889Z,95088.33
2019-05-13T04:21:47.219Z,95089.91
2019-05-13T04:24:18.284Z,95100.53
2019-05-13T04:26:53.036Z,95094.73
2019-05-13T04:29:23.734Z,95107.48
2019-05-13T04:31:54.790Z,95112.09
2019-05-13T04:34:26.505Z,95105.16
2019-05-13T04:36:57.744Z,95105.16
2019-05-13T04:39:41.847Z,95104.02
2019-05-13T04:42:02.596Z,95103.94
2019-05-13T04:44:33.931Z,95097.98
2019-05-13T04:47:05.323Z,95102.09
2019-05-13T04:49:36.919Z,95091.55
2019-05-13T04:52:08.294Z,95084.78
2019-05-13T04:54:39.544Z,95080.11
2019-05-13T04:57:12.402Z,95094.72
2019-05-13T04:59:44.634Z,95088.78
2019-05-13T05:02:49.639Z,95123.94
2019-05-13T05:05:47.293Z,95095.47
2019-05-13T05:08:48.552Z,95097.97
2019-05-13T05:11:57.535Z,95088.86
2019-05-13T05:14:58.062Z,95101.41
2019-05-13T05:18:14.802Z,95089.48
2019-05-13T05:21:06.092Z,95089.48
2019-05-13T05:23:58.633Z,95088.11
2019-05-13T05:27:25.301Z,95088.11
2019-05-13T05:30:48.865Z,95086.63
2019-05-13T05:33:41.187Z,95111.95
2019-05-13T05:36:38.355Z,95111.95
2019-05-13T05:39:22.801Z,95117.16
2019-05-13T05:41:56.081Z,95102.86
2019-05-13T05:44:32.111Z,95111.59
2019-05-13T05:47:04.644Z,95111.17
2019-05-13T05:49:37.259Z,95112.09
2019-05-13T05:52:08.825Z,95122.83
2019-05-13T05:54:42.231Z,95092.33
2019-05-13T05:57:13.497Z,95090.50
2019-05-13T05:59:44.632Z,95118.94
2019-05-13T06:02:17.311Z,95092.77
2019-05-13T06:04:51.996Z,95086.68
2019-05-13T06:07:24.017Z,95079.33
2019-05-13T06:09:55.309Z,95073.54
2019-05-13T06:12:27.626Z,95079.30
2019-05-13T06:15:02.408Z,95082.98
2019-05-13T06:17:32.639Z,95121.41
2019-05-13T06:20:04.729Z,95103.11
2019-05-13T06:22:35.905Z,95086.55
2019-05-13T06:25:07.478Z,95086.55
2019-05-13T06:27:38.718Z,95088.64
2019-05-13T06:30:12.351Z,95097.72
2019-05-13T06:32:42.602Z,95098.68
2019-05-13T06:35:13.705Z,95098.68
2019-05-13T06:37:45.193Z,95106.05
2019-05-13T06:40:16.237Z,95108.82
2019-05-13T06:42:47.263Z,95108.82
2019-05-13T06:45:18.597Z,95106.27
2019-05-13T06:47:52.110Z,95104.42
2019-05-13T06:50:22.564Z,95106.08
2019-05-13T06:52:53.625Z,95107.58
2019-05-13T06:55:24.945Z,95104.30
2019-05-13T06:57:56.302Z,95110.25
2019-05-13T07:00:27.360Z,95110.25
2019-05-13T07:02:58.167Z,95117.22
2019-05-13T07:05:31.640Z,95122.13
2019-05-13T07:08:02.258Z,95110.22
2019-05-13T07:10:33.538Z,95110.22
2019-05-13T07:13:04.713Z,95110.81
2019-05-13T07:15:35.756Z,95110.81
2019-05-13T07:18:07.317Z,95127.25
2019-05-13T07:20:38.400Z,95115.66
2019-05-13T07:23:12.164Z,95112.46
2019-05-13T07:25:42.837Z,95123.59
2019-05-13T07:28:14.340Z,95129.30
2019-05-13T07:30:45.844Z,95130.56
2019-05-13T07:33:17.010Z,95100.50
2019-05-13T07:35:48.263Z,95100.50
2019-05-13T07:38:22.246Z,95129.73
2019-05-13T07:41:01.346Z,95135.34
2019-05-13T07:43:32.218Z,95125.94
2019-05-13T07:46:03.656Z,95134.70
2019-05-13T07:48:34.823Z,95134.95
2019-05-13T07:51:05.961Z,95134.45
2019-05-13T07:53:36.893Z,95134.45
2019-05-13T07:56:07.875Z,95138.20
2019-05-13T07:58:41.651Z,95136.67
2019-05-13T08:01:12.448Z,95129.35
2019-05-13T08:03:44.106Z,95129.35
2019-05-13T08:06:15.325Z,95128.80
2019-05-13T08:08:46.674Z,95151.56
2019-05-13T08:11:17.884Z,95151.56
2019-05-13T08:13:51.486Z,95145.69
2019-05-13T08:16:22.402Z,95151.30
2019-05-13T08:18:54.571Z,95158.14
2019-05-13T08:21:26.352Z,95158.14
2019-05-13T08:23:57.845Z,95159.06
2019-05-13T08:26:28.999Z,95158.67
2019-05-13T08:29:03.121Z,95158.67
2019-05-13T08:31:32.922Z,95168.66
2019-05-13T08:34:04.166Z,95169.78
2019-05-13T08:36:35.240Z,95161.23
2019-05-13T08:39:08.604Z,95161.23
2019-05-13T08:41:42.370Z,95166.45
2019-05-13T08:44:13.288Z,95176.54
2019-05-13T08:46:44.527Z,95187.15
2019-05-13T08:49:15.809Z,95187.15
2019-05-13T08:51:47.689Z,95167.80
2019-05-13T08:54:21.826Z,95167.80
2019-05-13T08:56:52.406Z,95159.20
2019-05-13T08:59:23.589Z,95186.45
2019-05-13T09:01:54.886Z,95186.45
2019-05-13T09:04:26.039Z,95146.41
2019-05-13T09:07:02.148Z,95146.41
2019-05-13T09:09:32.864Z,95159.75
2019-05-13T09:12:05.552Z,95159.75
2019-05-13T09:14:37.000Z,95165.91
2019-05-13T09:17:08.471Z,95154.77
2019-05-13T09:19:41.404Z,95164.48
2019-05-13T09:22:12.813Z,95160.88
2019-05-13T09:24:45.058Z,95160.88
2019-05-13T09:27:16.456Z,95161.12
2019-05-13T09:29:47.803Z,95159.49
2019-05-13T09:32:21.490Z,95164.45
2019-05-13T09:34:52.631Z,95147.45
2019-05-13T09:37:24.199Z,95151.98
2019-05-13T09:39:55.112Z,95151.42
2019-05-13T09:42:25.979Z,95166.16
2019-05-13T09:44:57.261Z,95170.25
2019-05-13T09:47:28.682Z,95177.06
2019-05-13T09:49:59.944Z,95183.64
2019-05-13T09:52:31.853Z,95185.39
2019-05-13T09:55:03.381Z,95173.38
2019-05-13T09:57:34.743Z,95163.67
2019-05-13T10:00:06.690Z,95158.16
2019-05-13T10:02:38.136Z,95157.92
2019-05-13T10:05:11.556Z,95141.53
2019-05-13T10:07:43.661Z,95157.59
2019-05-13T10:10:16.557Z,95157.09
2019-05-13T10:13:07.459Z,95162.84
2019-05-13T10:15:22.164Z,95170.87
2019-05-13T10:17:53.568Z,95178.77
2019-05-13T10:20:47.624Z,95188.98
2019-05-13T10:23:22.087Z,95182.14
2019-05-13T10:25:55.832Z,95186.92
2019-05-13T10:28:27.502Z,95184.39
2019-05-13T10:30:58.873Z,95195.59
2019-05-13T10:33:31.926Z,95187.61
2019-05-13T10:36:04.151Z,95188.86
2019-05-13T10:38:35.385Z,95178.22
2019-05-13T10:41:06.967Z,95183.02
2019-05-13T10:43:41.447Z,95193.72
2019-05-13T10:46:12.713Z,95183.76
2019-05-13T10:48:43.415Z,95181.56
2019-05-13T10:51:14.527Z,95190.84
2019-05-13T10:53:46.084Z,95199.31
2019-05-13T10:56:16.958Z,95159.70
2019-05-13T10:58:47.998Z,95148.38
2019-05-13T11:01:18.810Z,95145.34
2019-05-13T11:03:52.416Z,95145.34
2019-05-13T11:06:22.934Z,95147.47
2019-05-13T11:08:53.914Z,95147.84
2019-05-13T11:11:25.395Z,95149.16
2019-05-13T11:14:06.717Z,95139.45
2019-05-13T11:16:29.075Z,95141.75
2019-05-13T11:19:02.815Z,95139.38
2019-05-13T11:21:33.610Z,95139.38
2019-05-13T11:24:05.495Z,95136.41
2019-05-13T11:26:36.802Z,95160.94
2019-05-13T11:29:08.080Z,95160.94
2019-05-13T11:31:42.495Z,95156.89
2019-05-13T11:34:12.395Z,95144.66
2019-05-13T11:36:43.928Z,95144.66
2019-05-13T11:39:15.042Z,95134.08
2019-05-13T11:41:46.236Z,95141.78
2019-05-13T11:44:17.385Z,95134.85
2019-05-13T11:46:52.745Z,95133.88
2019-05-13T11:49:22.529Z,95156.52
2019-05-13T11:51:53.739Z,95146.14
2019-05-13T11:54:24.804Z,95128.74
2019-05-13T11:57:02.775Z,95133.64
2019-05-13T11:59:28.505Z,95125.95
2019-05-13T12:02:03.939Z,95136.13
2019-05-13T12:04:34.413Z,95145.56
2019-05-13T12:07:05.379Z,95136.63
2019-05-13T12:09:36.579Z,95144.80
2019-05-13T12:12:07.778Z,95146.05
2019-05-13T12:14:56.763Z,95146.05
2019-05-13T12:17:14.249Z,95143.64
2019-05-13T12:19:45.444Z,95139.72
2019-05-13T12:22:16.577Z,95145.91
2019-05-13T12:24:47.555Z,95129.64
2019-05-13T12:27:18.691Z,95129.64
2019-05-13T12:29:52.835Z,95161.72
2019-05-13T12:32:23.100Z,95134.95
2019-05-13T12:34:54.279Z,95137.70
2019-05-13T12:37:25.353Z,95136.81
2019-05-13T12:39:56.486Z,95123.73
2019-05-13T12:42:27.756Z,95123.73
2019-05-13T12:45:08.151Z,95123.11
2019-05-13T12:47:31.581Z,95124.17
2019-05-13T12:50:03.606Z,95124.09
2019-05-13T12:52:34.868Z,95116.89
2019-05-13T12:55:06.690Z,95139.34
2019-05-13T12:57:37.781Z,95113.64
2019-05-13T13:00:09.328Z,95105.41
2019-05-13T13:02:40.491Z,95126.47
2019-05-13T13:05:19.556Z,95126.47
2019-05-13T13:08:12.143Z,95115.34
2019-05-13T13:10:18.077Z,95120.94
2019-05-13T13:12:53.105Z,95120.94
2019-05-13T13:15:37.217Z,95119.31
2019-05-13T13:17:55.610Z,95108.90
2019-05-13T13:20:27.041Z,95082.83
2019-05-13T13:22:58.354Z,95082.83
2019-05-13T13:25:29.444Z,95087.28
2019-05-13T13:28:10.441Z,95095.06
2019-05-13T13:30:35.610Z,95095.06
2019-05-13T13:33:06.958Z,95100.20
2019-05-13T13:35:38.068Z,95092.48
2019-05-13T13:38:09.356Z,95091.61
2019-05-13T13:40:40.804Z,95083.47
2019-05-13T13:43:13.206Z,95102.22
2019-05-13T13:46:06.862Z,95100.73
2019-05-13T13:48:17.286Z,95097.98
2019-05-13T13:50:48.407Z,95092.31
2019-05-13T13:53:25.185Z,95081.27
2019-05-13T13:55:55.899Z,95072.15
2019-05-13T13:58:25.789Z,95083.40
2019-05-13T14:01:07.011Z,95086.41
2019-05-13T14:03:34.022Z,95076.57
2019-05-13T14:06:06.199Z,95070.12
2019-05-13T14:08:36.141Z,95078.16
2019-05-13T14:11:07.335Z,95074.84
2019-05-13T14:13:38.473Z,95078.33
2019-05-13T14:16:22.471Z,95082.69
2019-05-13T14:18:42.638Z,95050.62
2019-05-13T14:21:14.100Z,95067.44
2019-05-13T14:23:45.567Z,95060.77
2019-05-13T14:26:16.749Z,95060.77
2019-05-13T14:28:48.049Z,95059.45
2019-05-13T14:31:21.434Z,95084.38
2019-05-13T14:33:52.236Z,95103.59
2019-05-13T14:36:23.615Z,95079.11
2019-05-13T14:38:54.888Z,95059.59
2019-05-13T14:41:25.887Z,95059.09
2019-05-13T14:43:57.415Z,95041.72
2019-05-13T14:46:44.023Z,95041.72
2019-05-13T14:49:01.814Z,95040.23
2019-05-13T14:51:33.057Z,95052.44
2019-05-13T14:54:04.544Z,95052.44
2019-05-13T14:56:35.444Z,95034.26
2019-05-13T14:59:06.544Z,95038.92
2019-05-13T15:01:37.759Z,95036.08
2019-05-13T15:04:08.968Z,95036.08
2019-05-13T15:06:41.576Z,95028.64
2019-05-13T15:09:12.926Z,95038.78
2019-05-13T15:11:44.120Z,95039.09
2019-05-13T15:14:15.346Z,95024.63
2019-05-13T15:17:00.857Z,95026.03
2019-05-13T15:19:19.377Z,95017.45
2019-05-13T15:21:52.111Z,95032.33
2019-05-13T15:24:23.532Z,95042.36
2019-05-13T15:26:54.754Z,95022.93
2019-05-13T15:29:25.808Z,95030.33
2019-05-13T15:31:57.038Z,95009.31
2019-05-13T15:34:31.650Z,95034.42
2019-05-13T15:37:02.459Z,95024.05
2019-05-13T15:39:33.378Z,95033.70
2019-05-13T15:42:04.659Z,95040.05
2019-05-13T15:44:35.659Z,95031.64
2019-05-13T15:47:21.819Z,95037.86
2019-05-13T15:49:39.931Z,95041.85
2019-05-13T15:52:11.790Z,95053.87
2019-05-13T15:54:42.987Z,95041.30
2019-05-13T15:57:14.370Z,95054.56
2019-05-13T15:59:45.710Z,95048.30
2019-05-13T16:02:16.889Z,95051.18
2019-05-13T16:04:54.055Z,95047.78
2019-05-13T16:07:20.829Z,95045.79
2019-05-13T16:09:52.754Z,95037.48
2019-05-13T16:12:23.856Z,95044.31
2019-05-13T16:14:55.036Z,95045.63
2019-05-13T16:17:40.352Z,95038.84
2019-05-13T16:20:01.119Z,95058.50
2019-05-13T16:22:31.895Z,95039.00
2019-05-13T16:25:03.166Z,95048.12
2019-05-13T16:27:34.456Z,95040.56
2019-05-13T16:30:05.886Z,95046.30
2019-05-13T16:32:36.830Z,95035.05
2019-05-13T16:35:08.354Z,95017.66
2019-05-13T16:37:41.303Z,95043.66
2019-05-13T16:40:12.399Z,95024.31
2019-05-13T16:42:43.524Z,95033.23
2019-05-13T16:45:14.729Z,95020.06
2019-05-13T16:47:56.612Z,95027.66
2019-05-13T16:50:18.944Z,95029.41
2019-05-13T16:52:51.101Z,95023.95
2019-05-13T16:55:22.500Z,95036.48
2019-05-13T16:57:53.290Z,95031.63
2019-05-13T17:00:24.790Z,95026.80
2019-05-13T17:02:55.728Z,95039.53
2019-05-13T17:05:27.116Z,95038.45
2019-05-13T17:07:58.209Z,95032.58
2019-05-13T17:10:31.381Z,95030.81
2019-05-13T17:13:02.877Z,95042.47
2019-05-13T17:15:34.311Z,95042.47
2019-05-13T17:18:11.691Z,95027.94
2019-05-13T17:20:38.171Z,95037.86
2019-05-13T17:23:09.408Z,95036.54
2019-05-13T17:25:42.343Z,95038.53
2019-05-13T17:28:13.843Z,95043.12
2019-05-13T17:30:45.329Z,95042.80
2019-05-13T17:33:16.295Z,95050.89
2019-05-13T17:35:47.367Z,95036.97
2019-05-13T17:38:18.398Z,95035.23
2019-05-13T17:40:50.260Z,95039.60
2019-05-13T17:43:23.491Z,95047.59
2019-05-13T17:45:54.537Z,95048.96
2019-05-13T17:48:29.386Z,95048.15
2019-05-13T17:51:01.429Z,95047.70
2019-05-13T17:53:32.752Z,95036.47
2019-05-13T17:56:04.139Z,95030.03
2019-05-13T17:58:35.456Z,95034.56
2019-05-13T18:01:06.915Z,95026.75
2019-05-13T18:03:38.026Z,95027.00
2019-05-13T18:06:11.329Z,95041.59
2019-05-13T18:08:42.156Z,95054.95
2019-05-13T18:11:13.760Z,95043.21
2019-05-13T18:13:45.107Z,95031.37
2019-05-13T18:16:16.390Z,95036.05
2019-05-13T18:18:47.925Z,95031.80
2019-05-13T18:21:19.379Z,95023.67
2019-05-13T18:23:52.251Z,95012.89
2019-05-13T18:26:23.521Z,95025.59
2019-05-13T18:28:54.695Z,95014.70
2019-05-13T18:31:25.804Z,95022.47
2019-05-13T18:33:57.065Z,95022.47
2019-05-13T18:36:28.286Z,95024.72
2019-05-13T18:39:01.626Z,95019.08
2019-05-13T18:41:34.030Z,95025.34
2019-05-13T18:44:05.174Z,95025.34
2019-05-13T18:46:36.239Z,95025.25
2019-05-13T18:49:07.422Z,95039.16
2019-05-13T18:51:38.314Z,95034.19
2019-05-13T18:54:11.710Z,95034.19
2019-05-13T18:56:42.420Z,95042.58
2019-05-13T18:59:13.722Z,95042.58
2019-05-13T19:01:44.843Z,95037.42
2019-05-13T19:04:16.084Z,95037.85
2019-05-13T19:06:47.396Z,95037.85
2019-05-13T19:09:18.936Z,95041.44
2019-05-13T19:11:51.577Z,95036.24
2019-05-13T19:14:22.516Z,95036.05
2019-05-13T19:16:53.631Z,95046.00
2019-05-13T19:19:24.741Z,95051.45
2019-05-13T19:21:55.797Z,95042.30
2019-05-13T19:24:27.873Z,95043.00
2019-05-13T19:27:01.473Z,95043.00
2019-05-13T19:29:32.259Z,95038.21
2019-05-13T19:32:03.363Z,95051.94
2019-05-13T19:34:34.473Z,95040.89
2019-05-13T19:37:05.729Z,95039.69
2019-05-13T19:39:36.866Z,95031.37
2019-05-13T19:42:07.955Z,95031.37
2019-05-13T19:44:39.107Z,95035.82
2019-05-13T19:47:12.413Z,95043.88
2019-05-13T19:49:46.709Z,95054.08
2019-05-13T19:52:18.156Z,95045.84
2019-05-13T19:54:51.287Z,95045.84
2019-05-13T19:57:22.516Z,95032.51
2019-05-13T19:59:53.762Z,95032.51
2019-05-13T20:02:25.093Z,95034.55
2019-05-13T20:04:56.292Z,95037.30
2019-05-13T20:07:31.683Z,95028.52
2019-05-13T20:10:02.826Z,95030.45
2019-05-13T20:12:34.474Z,95022.11
2019-05-13T20:15:05.921Z,95022.11
2019-05-13T20:17:36.873Z,95033.70
2019-05-13T20:20:05.870Z,95033.25
2019-05-13T20:22:38.758Z,95043.72
2019-05-13T20:25:10.892Z,95049.13
2019-05-13T20:27:42.494Z,95049.13
2019-05-13T20:30:13.697Z,95059.98
2019-05-13T20:32:44.643Z,95079.70
2019-05-13T20:35:15.573Z,95059.41
2019-05-13T20:37:47.458Z,95047.08
2019-05-13T20:40:18.489Z,95042.78
2019-05-13T20:42:51.535Z,95041.42
2019-05-13T20:45:22.657Z,95041.42
2019-05-13T20:47:53.492Z,95028.21
2019-05-13T20:50:24.648Z,95039.61
2019-05-13T20:52:55.775Z,95039.61
2019-05-13T20:55:26.887Z,95034.24
2019-05-13T20:57:58.347Z,95016.51
2019-05-13T21:00:31.433Z,95015.73
2019-05-13T21:03:02.926Z,95040.30
2019-05-13T21:05:35.262Z,95012.62
2019-05-13T21:08:06.480Z,95010.03
2019-05-13T21:10:38.650Z,95017.13
2019-05-13T21:13:12.218Z,95010.44
2019-05-13T21:15:43.491Z,94999.75
2019-05-13T21:18:14.604Z,94998.07
2019-05-13T21:20:45.945Z,94998.07
2019-05-13T21:23:17.473Z,94999.20
2019-05-13T21:25:50.938Z,94993.13
2019-05-13T21:28:22.165Z,94982.60
2019-05-13T21:30:53.543Z,94969.16
2019-05-13T21:33:24.721Z,94965.60
2019-05-13T21:35:55.871Z,94968.08
2019-05-13T21:38:27.136Z,94970.54
2019-05-13T21:40:58.322Z,94974.51
2019-05-13T21:43:32.130Z,94975.88
2019-05-13T21:46:02.458Z,94970.03
2019-05-13T21:48:33.502Z,94974.28
2019-05-13T21:51:04.463Z,94966.78
2019-05-13T21:53:33.319Z,94951.07
2019-05-13T21:56:04.558Z,94953.09
2019-05-13T21:58:35.607Z,94961.36
2019-05-13T22:01:06.676Z,94955.67
2019-05-13T22:03:37.743Z,94948.82
2019-05-13T22:06:10.948Z,94949.98
2019-05-13T22:08:41.845Z,94943.11
2019-05-13T22:11:12.934Z,94923.98
2019-05-13T22:13:43.795Z,94921.73
2019-05-13T22:16:14.849Z,94895.67
2019-05-13T22:18:45.839Z,94924.06
2019-05-13T22:21:16.686Z,94933.45
2019-05-13T22:23:47.702Z,94936.42
2019-05-13T22:26:18.655Z,94943.99
2019-05-13T22:28:51.216Z,94962.69
2019-05-13T22:31:23.368Z,94949.28
2019-05-13T22:33:54.744Z,94954.95
2019-05-13T22:36:25.834Z,94938.45
2019-05-13T22:38:56.967Z,94941.75
2019-05-13T22:41:27.804Z,94956.48
2019-05-13T22:43:59.138Z,94972.59
2019-05-13T22:46:32.259Z,94961.13
2019-05-13T22:49:03.848Z,94967.38
2019-05-13T22:51:35.237Z,94976.09
2019-05-13T22:54:06.607Z,94978.02
2019-05-13T22:56:37.892Z,94974.78
2019-05-13T22:59:09.164Z,94966.12
2019-05-13T23:01:41.846Z,94963.50
2019-05-13T23:04:13.081Z,94963.80
2019-05-13T23:06:44.556Z,94960.87
2019-05-13T23:09:15.638Z,94953.81
2019-05-13T23:11:47.112Z,94954.77
2019-05-13T23:14:18.369Z,94960.09
2019-05-13T23:16:49.978Z,94975.00
2019-05-13T23:19:21.735Z,94974.67
2019-05-13T23:21:53.178Z,94986.96
2019-05-13T23:24:25.083Z,94994.80
2019-05-13T23:26:56.444Z,95004.80
2019-05-13T23:29:27.548Z,95008.72
2019-05-13T23:31:58.688Z,95004.78
2019-05-13T23:34:31.702Z,95006.59
2019-05-13T23:37:02.310Z,95013.70
2019-05-13T23:39:33.624Z,94994.61
2019-05-13T23:42:04.656Z,94992.30
2019-05-13T23:44:35.735Z,95000.31
2019-05-13T23:47:07.202Z,94985.76
2019-05-13T23:49:38.758Z,94987.70
2019-05-13T23:52:11.799Z,94989.64
2019-05-13T23:54:43.814Z,94974.60
2019-05-13T23:57:14.975Z,94971.99
2019-05-13T23:59:46.242Z,94965.19
